Time;durP1;ratioP1;P1;durP2;ratioP2;P2;SDS_P1;SDS_P2;PMS_P1;PMS_P2;Temp;Humidity;BMP_temperature;BMP_pressure;BME280_temperature;BME280_humidity;BME280_pressure;Samples;Min_cycle;Max_cycle;Signal;HPM_P1;HPM_P2
2022/10/02 00:00:23;;;;;;;0.10;0.10;;;;;;;10.08;100.00;96553.81;5053503;28;20094;-74
2022/10/02 00:03:17;;;;;;;0.10;0.10;;;;;;;10.01;100.00;96554.78;5066732;28;20052;-75
2022/10/02 00:06:13;;;;;;;0.10;0.10;;;;;;;9.89;100.00;96558.59;5067905;28;20119;-74
2022/10/02 00:09:02;;;;;;;0.10;0.10;;;;;;;9.90;100.00;96565.56;5053735;28;20101;-75
2022/10/02 00:11:54;;;;;;;0.15;0.15;;;;;;;9.80;100.00;96571.53;5069525;28;20547;-74
2022/10/02 00:14:43;;;;;;;0.10;0.10;;;;;;;9.81;100.00;96578.50;5054770;28;20071;-76
2022/10/02 00:17:34;;;;;;;0.15;0.15;;;;;;;9.64;100.00;96574.97;5071665;28;20048;-75
2022/10/02 00:20:27;;;;;;;0.10;0.10;;;;;;;9.58;100.00;96579.44;5066588;28;20343;-75
2022/10/02 00:23:30;;;;;;;0.10;0.10;;;;;;;9.63;100.00;96579.50;5067358;28;20040;-75
2022/10/02 00:26:33;;;;;;;0.10;0.10;;;;;;;9.72;100.00;96578.06;5068171;28;20131;-74
2022/10/02 00:29:44;;;;;;;0.10;0.10;;;;;;;9.61;100.00;96581.63;5055550;28;20055;-74
2022/10/02 00:32:39;;;;;;;0.10;0.10;;;;;;;9.63;100.00;96587.53;5068028;28;20040;-74
2022/10/02 00:35:40;;;;;;;0.10;0.10;;;;;;;9.68;100.00;96587.63;5067392;28;20055;-74
2022/10/02 00:38:50;;;;;;;0.20;0.20;;;;;;;9.76;100.00;96586.44;5086392;27;21530;-75
2022/10/02 00:42:11;;;;;;;0.10;0.10;;;;;;;9.80;100.00;96594.75;5073894;28;20732;-74
2022/10/02 00:45:18;;;;;;;0.20;0.17;;;;;;;9.87;100.00;96584.75;5074313;28;20036;-75
2022/10/02 00:48:49;;;;;;;0.10;0.10;;;;;;;9.90;100.00;96595.78;5088667;28;20360;-75
2022/10/02 00:52:01;;;;;;;0.20;0.20;;;;;;;9.95;100.00;96595.03;5007579;28;20033;-75
2022/10/02 00:55:06;;;;;;;0.10;0.10;;;;;;;9.89;100.00;96598.69;5006422;28;20045;-75
2022/10/02 00:58:29;;;;;;;0.10;0.10;;;;;;;9.89;100.00;96588.00;5074436;27;20081;-75
2022/10/02 01:01:21;;;;;;;0.10;0.10;;;;;;;9.72;100.00;96585.28;5085375;28;20482;-74
2022/10/02 01:04:12;;;;;;;0.10;0.10;;;;;;;9.68;100.00;96598.31;5086841;27;20048;-76
2022/10/02 01:06:58;;;;;;;0.20;0.20;;;;;;;9.64;100.00;96594.47;5087590;28;20050;-76
2022/10/02 01:09:44;;;;;;;0.10;0.10;;;;;;;9.69;100.00;96605.28;5067605;28;20043;-76
2022/10/02 01:12:30;;;;;;;0.40;0.20;;;;;;;9.87;100.00;96596.25;5090097;28;20047;-75
2022/10/02 01:15:19;;;;;;;0.10;0.10;;;;;;;9.91;100.00;96600.06;5087308;28;20134;-75
2022/10/02 01:18:06;;;;;;;0.20;0.20;;;;;;;9.99;100.00;96604.22;5080839;28;20032;-75
2022/10/02 01:21:03;;;;;;;0.10;0.10;;;;;;;10.02;100.00;96607.19;5067470;28;20405;-76
2022/10/02 01:23:59;;;;;;;0.10;0.10;;;;;;;10.06;100.00;96604.88;5086907;28;20043;-76
2022/10/02 01:26:51;;;;;;;0.22;0.20;;;;;;;10.01;100.00;96594.88;5088945;28;20081;-75
2022/10/02 01:29:37;;;;;;;0.10;0.10;;;;;;;10.02;100.00;96601.84;5088548;28;20051;-75
2022/10/02 01:32:30;;;;;;;0.10;0.10;;;;;;;10.22;100.00;96608.63;5087698;28;20390;-76
2022/10/02 01:35:19;;;;;;;0.17;0.13;;;;;;;10.23;100.00;96604.91;5084757;28;20035;-76
2022/10/02 01:38:12;;;;;;;0.10;0.10;;;;;;;10.17;100.00;96601.31;5086655;28;20055;-76
2022/10/02 01:40:58;;;;;;;0.10;0.10;;;;;;;10.11;100.00;96606.81;5087247;28;20067;-75
2022/10/02 01:43:51;;;;;;;0.10;0.10;;;;;;;10.13;100.00;96599.38;5085704;28;20195;-76
2022/10/02 01:46:59;;;;;;;0.10;0.10;;;;;;;10.07;100.00;96601.13;5086728;28;20323;-76
2022/10/02 01:50:16;;;;;;;0.15;0.15;;;;;;;9.97;100.00;96609.00;5082903;28;20557;-76
2022/10/02 01:53:18;;;;;;;0.10;0.10;;;;;;;9.91;100.00;96612.63;5089146;28;20050;-75
2022/10/02 01:56:33;;;;;;;0.22;0.15;;;;;;;9.94;100.00;96617.47;5085946;28;20418;-76
2022/10/02 01:59:28;;;;;;;0.10;0.10;;;;;;;9.95;100.00;96624.44;5087133;28;20040;-76
2022/10/02 02:02:30;;;;;;;0.10;0.10;;;;;;;10.03;100.00;96610.69;5086620;28;20366;-75
2022/10/02 02:05:30;;;;;;;0.10;0.10;;;;;;;10.07;100.00;96611.84;5085744;28;20039;-75
2022/10/02 02:08:31;;;;;;;0.20;0.20;;;;;;;10.11;100.00;96618.31;5087082;27;20130;-76
2022/10/02 02:11:21;;;;;;;0.20;0.10;;;;;;;10.06;100.00;96615.56;5086527;28;20123;-75
2022/10/02 02:14:26;;;;;;;0.10;0.10;;;;;;;10.01;100.00;96615.47;5057958;28;20153;-75
2022/10/02 02:17:30;;;;;;;0.10;0.10;;;;;;;10.05;100.00;96611.28;5088615;28;20154;-76
2022/10/02 02:20:26;;;;;;;0.20;0.20;;;;;;;10.05;100.00;96613.94;5085187;28;20035;-76
2022/10/02 02:23:16;;;;;;;0.15;0.15;;;;;;;10.07;100.00;96619.06;5085116;28;20299;-76
2022/10/02 02:26:07;;;;;;;0.10;0.10;;;;;;;10.06;100.00;96604.88;5087465;28;20261;-76
2022/10/02 02:28:58;;;;;;;0.20;0.20;;;;;;;10.05;100.00;96605.94;5087294;28;20035;-75
2022/10/02 02:31:51;;;;;;;0.10;0.10;;;;;;;9.99;100.00;96618.38;5088002;28;20035;-75
2022/10/02 02:34:43;;;;;;;0.10;0.10;;;;;;;10.00;100.00;96613.84;5087809;28;20418;-75
2022/10/02 02:37:34;;;;;;;0.10;0.10;;;;;;;9.88;100.00;96608.53;5074237;28;20929;-75
2022/10/02 02:40:25;;;;;;;0.10;0.10;;;;;;;9.99;100.00;96631.75;5066172;28;20524;-75
2022/10/02 02:43:26;;;;;;;0.20;0.20;;;;;;;10.01;100.00;96629.66;5068450;28;20121;-75
2022/10/02 02:46:24;;;;;;;0.10;0.10;;;;;;;10.11;100.00;96629.00;5063816;28;20114;-75
2022/10/02 02:49:11;;;;;;;0.10;0.10;;;;;;;10.22;100.00;96627.34;5065863;28;20050;-75
2022/10/02 02:52:02;;;;;;;0.10;0.10;;;;;;;10.27;100.00;96608.72;5063201;28;20040;-75
2022/10/02 02:54:54;;;;;;;0.10;0.10;;;;;;;10.11;100.00;96606.81;5068328;28;20040;-76
2022/10/02 02:57:48;;;;;;;0.10;0.10;;;;;;;10.23;100.00;96610.25;5052789;28;20059;-75
2022/10/02 03:00:34;;;;;;;0.30;0.20;;;;;;;10.20;100.00;96605.38;5065431;28;20059;-75
2022/10/02 03:03:20;;;;;;;0.10;0.10;;;;;;;10.26;100.00;96609.75;5065697;28;20099;-76
2022/10/02 03:06:30;;;;;;;0.30;0.10;;;;;;;10.27;100.00;96619.41;5064339;28;20723;-76
2022/10/02 03:09:19;;;;;;;0.10;0.10;;;;;;;10.25;100.00;96608.97;5067945;28;20032;-75
2022/10/02 03:12:19;;;;;;;0.25;0.20;;;;;;;10.25;100.00;96614.31;5066572;28;20097;-75
2022/10/02 03:15:27;;;;;;;0.15;0.15;;;;;;;10.20;100.00;96616.88;5065993;28;20098;-76
2022/10/02 03:18:28;;;;;;;0.10;0.10;;;;;;;10.21;100.00;96607.81;5065498;28;20032;-76
2022/10/02 03:21:23;;;;;;;0.27;0.20;;;;;;;10.18;100.00;96613.63;5066146;28;20067;-76
2022/10/02 03:24:22;;;;;;;0.10;0.10;;;;;;;10.17;100.00;96622.69;5065707;28;20630;-75
2022/10/02 03:27:34;;;;;;;0.10;0.10;;;;;;;10.19;100.00;96614.44;5052726;28;20106;-75
2022/10/02 03:30:20;;;;;;;;;;;;;;;10.15;100.00;96615.97;5065646;28;20027;-76
2022/10/02 03:33:09;;;;;;;0.10;0.10;;;;;;;10.17;100.00;96612.00;5064077;28;20742;-76
2022/10/02 03:35:55;;;;;;;0.22;0.20;;;;;;;10.15;100.00;96613.31;5065000;28;20310;-76
2022/10/02 03:38:44;;;;;;;0.10;0.10;;;;;;;10.13;100.00;96610.06;5088098;28;20580;-76
2022/10/02 03:41:30;;;;;;;0.20;0.15;;;;;;;10.14;100.00;96617.84;5085471;28;20130;-76
2022/10/02 03:44:16;;;;;;;0.20;0.20;;;;;;;10.19;100.00;96606.41;5088811;27;20042;-76
2022/10/02 03:47:02;;;;;;;0.20;0.20;;;;;;;10.20;100.00;96611.53;5087744;28;20453;-76
2022/10/02 03:49:47;;;;;;;0.10;0.10;;;;;;;10.20;100.00;96616.06;5071457;28;20142;-76
2022/10/02 03:52:34;;;;;;;0.20;0.20;;;;;;;10.18;100.00;96624.31;5094746;27;20458;-76
2022/10/02 03:55:31;;;;;;;0.17;0.17;;;;;;;10.24;100.00;96623.38;5090841;27;20649;-75
2022/10/02 03:58:17;;;;;;;0.22;0.20;;;;;;;10.24;100.00;96612.69;5082836;27;20032;-75
2022/10/02 04:01:15;;;;;;;0.20;0.20;;;;;;;10.23;100.00;96618.28;5089284;28;20308;-75
2022/10/02 04:04:05;;;;;;;0.20;0.20;;;;;;;10.25;100.00;96608.97;5093200;28;20047;-76
2022/10/02 04:06:59;;;;;;;0.22;0.10;;;;;;;10.29;100.00;96610.09;5085094;28;20135;-76
2022/10/02 04:09:53;;;;;;;0.20;0.20;;;;;;;10.30;100.00;96598.34;5056450;28;20047;-76
2022/10/02 04:12:51;;;;;;;0.10;0.10;;;;;;;10.25;100.00;96589.44;5092553;28;20067;-76
2022/10/02 04:16:06;;;;;;;0.15;0.15;;;;;;;10.25;100.00;96598.25;5093868;28;20239;-75
2022/10/02 04:19:17;;;;;;;0.10;0.10;;;;;;;10.18;100.00;96586.88;5074987;28;20490;-75
2022/10/02 04:22:42;;;;;;;0.15;0.10;;;;;;;10.19;100.00;96599.19;5090074;28;20051;-75
2022/10/02 04:25:36;;;;;;;0.20;0.20;;;;;;;10.22;100.00;96609.44;5075071;28;20135;-75
2022/10/02 04:28:30;;;;;;;0.30;0.20;;;;;;;10.29;100.00;96610.09;5091324;27;20043;-76
2022/10/02 04:31:16;;;;;;;0.13;0.13;;;;;;;10.32;100.00;96606.94;5063511;28;20059;-76
2022/10/02 04:34:06;;;;;;;0.20;0.10;;;;;;;10.33;100.00;96611.22;5089997;28;20074;-75
2022/10/02 04:37:22;;;;;;;0.25;0.20;;;;;;;10.35;100.00;96602.16;5088455;28;20553;-76
2022/10/02 04:40:20;;;;;;;0.40;0.20;;;;;;;10.38;100.00;96601.69;5072556;28;20103;-76
2022/10/02 04:43:31;;;;;;;0.20;0.10;;;;;;;10.40;100.00;96599.56;5090422;28;20047;-75
2022/10/02 04:46:38;;;;;;;0.25;0.20;;;;;;;10.43;100.00;96605.25;5089121;28;20108;-75
2022/10/02 04:49:30;;;;;;;0.10;0.10;;;;;;;10.44;100.00;96617.56;5088404;28;20390;-75
2022/10/02 04:52:32;;;;;;;0.10;0.10;;;;;;;10.37;100.00;96611.56;5087723;28;20035;-76
2022/10/02 04:55:30;;;;;;;0.17;0.13;;;;;;;10.44;100.00;96614.91;5088011;28;20090;-75
2022/10/02 04:58:31;;;;;;;0.10;0.10;;;;;;;10.44;100.00;96612.22;5085237;28;20027;-76
2022/10/02 05:01:51;;;;;;;0.10;0.10;;;;;;;10.45;100.00;96621.88;5071474;28;20051;-76
2022/10/02 05:05:03;;;;;;;0.10;0.10;;;;;;;10.40;100.00;96621.78;5082085;28;20898;-75
2022/10/02 05:08:17;;;;;;;0.10;0.10;;;;;;;10.38;100.00;96612.38;5085044;28;20035;-76
2022/10/02 05:11:26;;;;;;;0.20;0.20;;;;;;;10.30;100.00;96617.06;5088507;28;20043;-76
2022/10/02 05:14:19;;;;;;;0.10;0.10;;;;;;;10.40;100.00;96623.63;5088861;28;20042;-76
2022/10/02 05:17:49;;;;;;;0.28;0.20;;;;;;;10.39;100.00;96625.50;5065478;28;20040;-77
2022/10/02 05:20:55;;;;;;;0.20;0.20;;;;;;;10.40;100.00;96623.63;5010407;28;20519;-77
2022/10/02 05:23:44;;;;;;;0.17;0.17;;;;;;;10.43;100.00;96629.34;5090139;28;20039;-75
2022/10/02 05:26:51;;;;;;;0.10;0.10;;;;;;;10.51;100.00;96628.13;5087224;28;20628;-74
2022/10/02 05:30:05;;;;;;;0.10;0.10;;;;;;;10.56;100.00;96625.50;5088085;28;20028;-74
2022/10/02 05:33:18;;;;;;;0.10;0.10;;;;;;;10.46;100.00;96630.69;5091525;28;20532;-74
2022/10/02 05:36:17;;;;;;;0.25;0.10;;;;;;;10.49;100.00;96630.19;5067242;28;20043;-74
2022/10/02 05:39:41;;;;;;;0.20;0.20;;;;;;;10.51;100.00;96639.63;5087065;28;20368;-74
2022/10/02 05:42:31;;;;;;;0.40;0.20;;;;;;;10.52;100.00;96625.19;5009941;28;20540;-74
2022/10/02 05:45:23;;;;;;;0.20;0.20;;;;;;;10.47;100.00;96624.28;5087140;28;20594;-75
2022/10/02 05:48:33;;;;;;;0.10;0.10;;;;;;;10.54;100.00;96617.72;5087278;28;20502;-74
2022/10/02 05:51:30;;;;;;;0.20;0.20;;;;;;;10.52;100.00;96619.84;5088441;28;20448;-73
2022/10/02 05:54:33;;;;;;;0.10;0.10;;;;;;;10.58;100.00;96629.56;5087223;28;20032;-75
2022/10/02 05:57:21;;;;;;;0.25;0.20;;;;;;;10.54;100.00;96623.06;5087434;28;20236;-76
2022/10/02 06:00:38;;;;;;;0.25;0.20;;;;;;;10.53;100.00;96636.69;5087634;28;20093;-76
2022/10/02 06:03:49;;;;;;;0.10;0.10;;;;;;;10.60;100.00;96632.00;5088629;28;20031;-76
2022/10/02 06:06:38;;;;;;;0.20;0.20;;;;;;;10.63;100.00;96633.38;5085982;28;20111;-76
2022/10/02 06:09:44;;;;;;;0.10;0.10;;;;;;;10.67;100.00;96642.53;5065947;28;20187;-76
2022/10/02 06:12:38;;;;;;;0.13;0.13;;;;;;;10.71;100.00;96649.81;5088663;28;20471;-76
2022/10/02 06:15:35;;;;;;;0.10;0.10;;;;;;;10.69;100.00;96654.63;5086438;28;21927;-77
2022/10/02 06:18:27;;;;;;;0.10;0.10;;;;;;;10.76;100.00;96655.25;5088820;28;20103;-77
2022/10/02 06:21:32;;;;;;;0.10;0.10;;;;;;;10.80;100.00;96650.22;5079817;28;20517;-77
2022/10/02 06:24:45;;;;;;;0.10;0.10;;;;;;;10.86;100.00;96646.56;5088897;28;20189;-77
2022/10/02 06:27:39;;;;;;;0.10;0.10;;;;;;;10.92;100.00;96650.13;5090570;28;20082;-77
2022/10/02 06:30:27;;;;;;;0.20;0.17;;;;;;;10.99;100.00;96648.09;5087540;28;20036;-77
2022/10/02 06:33:13;;;;;;;0.03;0.03;;;;;;;10.96;100.00;96652.06;5086956;28;20546;-77
2022/10/02 06:35:59;;;;;;;0.10;0.10;;;;;;;10.94;100.00;96650.69;5088723;28;20036;-77
2022/10/02 06:38:51;;;;;;;0.10;0.10;;;;;;;10.85;100.00;96656.47;5092775;28;20044;-77
2022/10/02 06:41:36;;;;;;;0.10;0.10;;;;;;;10.90;100.00;96653.06;5090801;28;20075;-76
2022/10/02 06:44:34;;;;;;;0.10;0.10;;;;;;;10.97;100.00;96658.22;4384437;28;10000347;-77
2022/10/02 06:47:50;;;;;;;0.10;0.10;;;;;;;10.98;100.00;96663.34;5087701;28;20031;-77
2022/10/02 06:50:43;;;;;;;0.10;0.10;;;;;;;10.99;100.00;96653.47;5086336;28;20040;-77
2022/10/02 06:53:52;;;;;;;0.10;0.10;;;;;;;10.95;100.00;96660.34;5089578;28;20766;-77
2022/10/02 06:57:10;;;;;;;0.15;0.10;;;;;;;11.05;100.00;96673.88;5087922;28;20050;-76
2022/10/02 06:59:58;;;;;;;0.10;0.10;;;;;;;11.05;100.00;96668.50;5088925;28;20364;-76
2022/10/02 07:02:44;;;;;;;0.10;0.10;;;;;;;11.16;100.00;96678.34;5072768;28;20039;-76
2022/10/02 07:06:14;;;;;;;0.10;0.10;;;;;;;11.14;100.00;96669.75;5085009;28;20047;-76
2022/10/02 07:09:28;;;;;;;0.10;0.10;;;;;;;11.38;100.00;96671.13;5004020;28;20049;-76
2022/10/02 07:12:20;;;;;;;0.20;0.20;;;;;;;11.46;100.00;96666.41;5003344;28;20041;-76
2022/10/02 07:15:18;;;;;;;0.10;0.10;;;;;;;11.48;100.00;96666.97;5087431;28;20082;-76
2022/10/02 07:18:45;;;;;;;0.10;0.10;;;;;;;11.42;100.00;96660.72;5088193;28;20054;-76
2022/10/02 07:22:09;;;;;;;0.20;0.20;;;;;;;11.46;100.00;96667.22;5093528;27;20526;-76
2022/10/02 07:24:57;;;;;;;0.10;0.10;;;;;;;11.41;100.00;96667.16;5065382;28;20397;-76
2022/10/02 07:28:21;;;;;;;0.10;0.10;;;;;;;11.43;100.00;96673.06;5093188;28;20150;-76
2022/10/02 07:31:45;;;;;;;0.10;0.10;;;;;;;11.47;100.00;96670.72;5090506;28;20062;-76
2022/10/02 07:34:42;;;;;;;0.10;0.10;;;;;;;11.47;100.00;96662.66;5091029;28;20065;-76
2022/10/02 07:37:47;;;;;;;0.15;0.15;;;;;;;11.50;100.00;96671.00;5093353;28;20056;-76
2022/10/02 07:40:52;;;;;;;0.10;0.10;;;;;;;11.46;100.00;96677.13;5092405;28;20052;-76
2022/10/02 07:43:51;;;;;;;0.08;0.08;;;;;;;11.38;100.00;96676.50;5094221;28;20923;-76
2022/10/02 07:46:53;;;;;;;0.13;0.13;;;;;;;11.35;100.00;96685.00;5089393;28;20062;-76
2022/10/02 07:50:08;;;;;;;0.15;0.15;;;;;;;11.34;100.00;96691.44;5078499;28;20482;-76
2022/10/02 07:53:20;;;;;;;0.10;0.10;;;;;;;11.43;100.00;96700.66;5093657;27;20039;-76
2022/10/02 07:56:10;;;;;;;0.10;0.10;;;;;;;11.59;100.00;96698.19;5088234;28;20032;-76
2022/10/02 07:59:02;;;;;;;0.10;0.10;;;;;;;11.83;100.00;96693.41;5090680;28;20770;-76
2022/10/02 08:01:50;;;;;;;0.10;0.10;;;;;;;11.97;100.00;96690.09;5091417;28;20044;-76
2022/10/02 08:04:36;;;;;;;0.10;0.10;;;;;;;12.20;100.00;96672.91;5092059;27;20067;-76
2022/10/02 08:07:22;;;;;;;0.10;0.10;;;;;;;12.31;100.00;96668.47;5075844;28;20044;-76
2022/10/02 08:10:11;;;;;;;0.10;0.10;;;;;;;12.37;100.00;96672.78;5090428;28;20032;-76
2022/10/02 08:13:05;;;;;;;0.10;0.10;;;;;;;12.44;100.00;96668.03;5091403;28;20046;-76
2022/10/02 08:15:55;;;;;;;0.10;0.10;;;;;;;12.39;100.00;96670.69;5076711;28;20036;-76
2022/10/02 08:18:47;;;;;;;0.10;0.10;;;;;;;12.43;100.00;96666.41;5093463;28;20032;-76
2022/10/02 08:21:44;;;;;;;0.10;0.10;;;;;;;12.49;100.00;96665.41;5081371;28;20040;-76
2022/10/02 08:24:37;;;;;;;0.10;0.10;;;;;;;12.31;100.00;96684.56;5090710;28;20035;-76
2022/10/02 08:27:33;;;;;;;0.10;0.10;;;;;;;12.35;100.00;96680.28;5093514;28;20394;-76
2022/10/02 08:30:19;;;;;;;0.10;0.10;;;;;;;12.38;100.00;96682.47;5075711;28;20356;-76
2022/10/02 08:33:14;;;;;;;0.10;0.10;;;;;;;12.40;100.00;96688.41;5054315;28;20314;-76
2022/10/02 08:36:18;;;;;;;0.10;0.10;;;;;;;12.48;100.00;96674.50;5089338;28;20032;-76
2022/10/02 08:39:13;;;;;;;0.10;0.10;;;;;;;12.39;100.00;96686.78;5089122;27;20065;-76
2022/10/02 08:42:07;;;;;;;0.10;0.10;;;;;;;12.50;100.00;96677.75;5088343;28;20043;-76
2022/10/02 08:45:25;;;;;;;0.10;0.10;;;;;;;12.58;100.00;96675.66;5076243;28;20043;-76
2022/10/02 08:48:29;;;;;;;0.10;0.10;;;;;;;12.62;100.00;96679.47;5089277;28;20298;-76
2022/10/02 08:51:53;;;;;;;0.10;0.10;;;;;;;12.99;100.00;96691.00;5086546;28;20047;-76
2022/10/02 08:54:54;;;;;;;0.10;0.10;;;;;;;13.00;100.00;96681.09;5092361;28;20217;-76
2022/10/02 08:57:46;;;;;;;0.10;0.10;;;;;;;12.92;100.00;96677.03;5092224;28;20047;-77
2022/10/02 09:00:56;;;;;;;0.10;0.10;;;;;;;12.89;100.00;96680.22;5089452;28;20040;-76
2022/10/02 09:04:20;;;;;;;0.10;0.10;;;;;;;12.94;100.00;96690.19;5092291;28;20420;-76
2022/10/02 09:07:25;;;;;;;0.20;0.10;;;;;;;12.85;100.00;96673.75;5091076;28;20039;-77
2022/10/02 09:10:44;;;;;;;0.10;0.10;;;;;;;12.98;100.00;96694.78;5089003;28;20465;-76
2022/10/02 09:13:42;;;;;;;0.10;0.10;;;;;;;13.13;100.00;96698.63;5092337;28;20269;-77
2022/10/02 09:16:43;;;;;;;0.10;0.10;;;;;;;13.21;100.00;96684.75;5089347;28;20048;-77
2022/10/02 09:19:58;;;;;;;0.10;0.10;;;;;;;13.29;100.00;96679.69;5100574;27;20057;-77
2022/10/02 09:23:21;;;;;;;0.10;0.10;;;;;;;13.30;100.00;96680.50;5106454;28;20039;-77
2022/10/02 09:26:26;;;;;;;0.10;0.10;;;;;;;13.41;100.00;96674.13;5091660;28;20512;-77
2022/10/02 09:29:29;;;;;;;0.20;0.17;;;;;;;13.40;100.00;96660.97;5089075;28;20034;-77
2022/10/02 09:32:27;;;;;;;0.10;0.10;;;;;;;13.41;100.00;96673.31;5090087;28;20092;-77
2022/10/02 09:35:45;;;;;;;0.10;0.10;;;;;;;13.58;100.00;96658.63;5086624;28;20044;-77
2022/10/02 09:38:47;;;;;;;0.10;0.10;;;;;;;13.72;100.00;96658.13;5088758;28;20055;-77
2022/10/02 09:41:48;;;;;;;0.10;0.10;;;;;;;13.70;100.00;96668.34;5089735;28;20130;-77
2022/10/02 09:44:47;;;;;;;0.10;0.10;;;;;;;13.19;100.00;96660.81;5077318;28;20512;-77
2022/10/02 09:48:09;;;;;;;0.10;0.10;;;;;;;13.09;100.00;96669.63;5088549;28;20044;-77
2022/10/02 09:51:14;;;;;;;;;;;;;;;12.94;100.00;96674.88;5060468;28;20043;-77
2022/10/02 09:54:14;;;;;;;0.10;0.10;;;;;;;12.81;100.00;96668.06;5089666;28;19911;-77
2022/10/02 09:57:04;;;;;;;0.10;0.10;;;;;;;12.91;100.00;96675.38;5065203;28;20077;-77
2022/10/02 10:00:18;;;;;;;0.10;0.10;;;;;;;12.94;100.00;96676.75;5075291;28;20110;-77
2022/10/02 10:03:15;;;;;;;0.20;0.20;;;;;;;13.17;100.00;96672.88;5086568;28;20119;-77
2022/10/02 10:06:22;;;;;;;0.10;0.10;;;;;;;13.58;100.00;96672.06;5086878;28;20235;-77
2022/10/02 10:09:39;;;;;;;0.10;0.10;;;;;;;14.03;100.00;96661.72;5086268;28;20147;-77
2022/10/02 10:12:48;;;;;;;0.10;0.10;;;;;;;14.03;100.00;96667.91;5088540;28;20113;-77
2022/10/02 10:15:56;;;;;;;0.10;0.10;;;;;;;13.79;100.00;96678.34;5089976;28;20082;-77
2022/10/02 10:18:51;;;;;;;0.10;0.10;;;;;;;13.73;100.00;96670.50;5081622;28;20404;-77
2022/10/02 10:22:08;;;;;;;0.13;0.10;;;;;;;13.78;100.00;96671.34;5057795;28;20092;-77
2022/10/02 10:25:22;;;;;;;0.10;0.10;;;;;;;13.86;100.00;96675.41;5081183;28;20497;-78
2022/10/02 10:28:26;;;;;;;0.10;0.10;;;;;;;13.69;100.00;96682.84;5072616;28;20136;-78
2022/10/02 10:31:47;;;;;;;0.10;0.10;;;;;;;13.34;100.00;96697.75;5086704;28;20087;-78
2022/10/02 10:34:57;;;;;;;0.10;0.10;;;;;;;13.30;100.00;96702.81;5087014;28;20032;-77
2022/10/02 10:41:27;;;;;;;0.10;0.10;;;;;;;13.15;100.00;96681.22;5068840;28;20373;-77
2022/10/02 10:44:47;;;;;;;0.10;0.10;;;;;;;13.03;100.00;96705.56;5065590;28;20467;-76
2022/10/02 10:47:56;;;;;;;0.10;0.10;;;;;;;12.91;100.00;96710.28;5070037;28;20491;-76
2022/10/02 10:50:59;;;;;;;0.10;0.10;;;;;;;12.78;100.00;96708.88;5070396;28;20067;-76
2022/10/02 10:54:21;;;;;;;0.10;0.10;;;;;;;12.87;100.00;96721.81;5076039;28;20044;-77
2022/10/02 10:57:31;;;;;;;0.10;0.10;;;;;;;13.20;100.00;96710.81;5040036;28;20487;-76
2022/10/02 11:00:24;;;;;;;0.10;0.10;;;;;;;13.41;100.00;96724.38;5068896;28;20028;-77
2022/10/02 11:03:39;;;;;;;0.10;0.10;;;;;;;13.58;100.00;96722.34;5070931;28;20036;-77
2022/10/02 11:06:49;;;;;;;0.10;0.10;;;;;;;13.85;100.00;96714.09;5064327;28;20047;-76
2022/10/02 11:10:08;;;;;;;0.10;0.10;;;;;;;13.51;100.00;96717.19;5075107;28;20063;-76
2022/10/02 11:13:09;;;;;;;0.10;0.10;;;;;;;13.18;100.00;96720.19;5072037;28;20028;-76
2022/10/02 11:16:43;;;;;;;0.10;0.10;;;;;;;12.93;100.00;96735.03;4722693;28;9999911;-77
2022/10/02 11:19:56;;;;;;;0.10;0.10;;;;;;;12.88;100.00;96732.31;4996304;28;20626;-77
2022/10/02 11:22:49;;;;;;;0.10;0.10;;;;;;;12.80;100.00;96741.63;5043554;28;20040;-76
2022/10/02 11:25:48;;;;;;;0.10;0.10;;;;;;;12.87;100.00;96738.75;5074850;28;20162;-77
2022/10/02 11:28:48;;;;;;;0.10;0.10;;;;;;;13.00;100.00;96742.88;5075310;28;20090;-77
2022/10/02 11:31:53;;;;;;;0.10;0.10;;;;;;;12.82;100.00;96739.50;5073008;28;20070;-76
2022/10/02 11:34:42;;;;;;;0.10;0.10;;;;;;;12.92;100.00;96746.03;5074145;28;20487;-77
2022/10/02 11:38:22;;;;;;;0.10;0.10;;;;;;;13.08;100.00;96745.09;5077829;28;20100;-77
2022/10/02 11:41:10;;;;;;;0.10;0.10;;;;;;;13.00;100.00;96741.00;5010438;28;20731;-77
2022/10/02 11:44:10;;;;;;;0.10;0.10;;;;;;;12.76;100.00;96742.41;5012892;28;20053;-77
2022/10/02 11:47:28;;;;;;;0.10;0.10;;;;;;;12.74;100.00;96748.03;5092444;28;20074;-77
2022/10/02 11:50:53;;;;;;;0.10;0.10;;;;;;;12.90;100.00;96756.22;5091697;28;20497;-77
2022/10/02 11:53:48;;;;;;;0.10;0.10;;;;;;;13.15;100.00;96761.81;5069268;28;20134;-77
2022/10/02 11:57:00;;;;;;;0.10;0.10;;;;;;;13.20;100.00;96766.44;5091913;28;20074;-77
2022/10/02 11:59:52;;;;;;;0.20;0.20;;;;;;;13.53;100.00;96760.75;5093137;28;20229;-77
2022/10/02 12:02:43;;;;;;;;;;;;;;;13.52;100.00;96761.00;5093691;28;20047;-77
2022/10/02 12:05:41;;;;;;;;;;;;;;;13.59;100.00;96759.72;5093989;28;20377;-77
2022/10/02 12:08:52;;;;;;;0.10;0.10;;;;;;;13.69;100.00;96753.56;5094606;28;19927;-77
2022/10/02 12:11:40;;;;;;;0.10;0.10;;;;;;;13.59;100.00;96732.81;5093770;28;20055;-77
2022/10/02 12:15:11;;;;;;;0.10;0.10;;;;;;;13.65;100.00;96742.53;5094391;28;20039;-76
2022/10/02 12:18:21;;;;;;;0.10;0.10;;;;;;;13.91;100.00;96739.97;5084537;28;20047;-76
2022/10/02 12:28:25;;;;;;;0.10;0.10;;;;;;;13.97;100.00;96744.31;5090727;28;20170;-76
2022/10/02 12:31:50;;;;;;;0.00;0.00;;;;;;;13.65;100.00;96745.22;5076529;28;20051;-76
2022/10/02 12:34:43;;;;;;;0.10;0.10;;;;;;;13.53;100.00;96739.22;5095216;28;20979;-76
2022/10/02 12:37:39;;;;;;;0.10;0.10;;;;;;;13.45;100.00;96736.22;5092107;28;20051;-76
2022/10/02 12:40:32;;;;;;;0.10;0.10;;;;;;;13.50;100.00;96742.44;5091640;28;20067;-76
2022/10/02 12:43:39;;;;;;;0.10;0.10;;;;;;;13.59;100.00;96740.88;5092121;28;20486;-75
2022/10/02 12:46:58;;;;;;;0.10;0.10;;;;;;;14.01;100.00;96745.41;5092197;28;20095;-75
2022/10/02 12:50:12;;;;;;;0.10;0.10;;;;;;;15.23;100.00;96745.63;5091879;28;20070;-76
2022/10/02 12:53:18;;;;;;;0.10;0.10;;;;;;;14.53;100.00;96738.31;5092808;28;20047;-76
2022/10/02 12:56:26;;;;;;;0.10;0.10;;;;;;;13.98;100.00;96739.72;5076194;28;20040;-76
2022/10/02 12:59:11;;;;;;;0.10;0.10;;;;;;;13.68;100.00;96748.47;5090185;28;20078;-76
2022/10/02 13:02:27;;;;;;;0.10;0.10;;;;;;;13.46;100.00;96740.53;5088733;27;20067;-76
2022/10/02 13:05:38;;;;;;;0.10;0.10;;;;;;;13.27;100.00;96746.34;5090166;28;20083;-76
2022/10/02 13:08:36;;;;;;;0.10;0.10;;;;;;;13.45;100.00;96746.97;5092119;27;20456;-76
2022/10/02 13:11:30;;;;;;;0.10;0.10;;;;;;;13.60;100.00;96758.63;5088406;28;20035;-77
2022/10/02 13:14:41;;;;;;;0.10;0.10;;;;;;;14.10;100.00;96751.91;5090231;27;20379;-78
2022/10/02 13:17:29;;;;;;;0.10;0.10;;;;;;;14.30;100.00;96753.03;5089348;28;20541;-77
2022/10/02 13:20:42;;;;;;;0.10;0.10;;;;;;;14.28;100.00;96758.69;5088244;28;20118;-77
2022/10/02 13:23:57;;;;;;;0.10;0.10;;;;;;;15.26;100.00;96755.88;5086040;27;20054;-77
2022/10/02 13:26:50;;;;;;;0.10;0.10;;;;;;;16.09;100.00;96751.91;5052523;28;20123;-77
2022/10/02 13:30:02;;;;;;;0.10;0.10;;;;;;;16.22;100.00;96740.53;5091638;28;20457;-77
2022/10/02 13:33:40;;;;;;;0.10;0.10;;;;;;;15.02;100.00;96746.72;5089567;28;20039;-77
2022/10/02 13:36:44;;;;;;;0.10;0.10;;;;;;;15.25;100.00;96740.78;5088811;28;20032;-77
2022/10/02 13:39:53;;;;;;;0.10;0.10;;;;;;;14.93;100.00;96735.66;5074226;28;20310;-77
2022/10/02 13:43:04;;;;;;;0.10;0.10;;;;;;;14.94;100.00;96731.06;5078116;28;20036;-77
2022/10/02 13:46:08;;;;;;;0.10;0.10;;;;;;;15.18;100.00;96747.53;5091867;28;20047;-77
2022/10/02 13:49:27;;;;;;;0.10;0.10;;;;;;;16.52;100.00;96738.75;5069305;28;20094;-77
2022/10/02 13:52:18;;;;;;;0.10;0.10;;;;;;;18.83;100.00;96735.06;5054222;27;20873;-77
2022/10/02 13:55:24;;;;;;;0.10;0.10;;;;;;;19.51;100.00;96739.06;5073051;28;20079;-77
2022/10/02 13:58:39;;;;;;;0.10;0.10;;;;;;;18.49;100.00;96739.84;5085471;28;20092;-78
2022/10/02 14:01:43;;;;;;;0.10;0.10;;;;;;;17.31;100.00;96740.34;5070374;28;20035;-78
2022/10/02 14:04:38;;;;;;;0.10;0.10;;;;;;;16.61;100.00;96739.78;5093003;27;20035;-78
2022/10/02 14:08:00;;;;;;;0.10;0.10;;;;;;;16.21;100.00;96738.91;5088814;27;20035;-77
2022/10/02 14:11:28;;;;;;;0.03;0.03;;;;;;;15.85;100.00;96736.34;4383207;28;10000505;-77
2022/10/02 14:14:45;;;;;;;0.10;0.10;;;;;;;15.79;100.00;96742.03;5073777;28;20058;-78
2022/10/02 14:17:56;;;;;;;0.10;0.10;;;;;;;15.29;100.00;96741.84;5053289;28;20818;-78